Time;durP1;ratioP1;P1;durP2;ratioP2;P2;SDS_P1;SDS_P2;PMS_P1;PMS_P2;Temp;Humidity;BMP_temperature;BMP_pressure;BME280_temperature;BME280_humidity;BME280_pressure;Samples;Min_cycle;Max_cycle;Signal;HPM_P1;HPM_P2
2022/10/11 00:02:16;;;;;;;2.60;0.90;;;15.10;99.90;;;;;;5036242;28;20456;-69
2022/10/11 00:04:43;;;;;;;1.87;0.90;;;15.10;99.90;;;;;;5033494;28;20978;-69
2022/10/11 00:07:11;;;;;;;2.03;0.80;;;15.10;99.90;;;;;;5036141;28;20452;-70
2022/10/11 00:09:38;;;;;;;3.53;0.90;;;15.10;99.90;;;;;;5034270;28;20471;-70
2022/10/11 00:12:07;;;;;;;2.80;0.93;;;15.00;99.90;;;;;;5035752;28;20452;-70
2022/10/11 00:14:34;;;;;;;2.53;0.80;;;15.00;99.90;;;;;;5032594;28;20488;-70
2022/10/11 00:17:01;;;;;;;1.27;0.90;;;15.00;99.90;;;;;;5036460;28;20452;-70
2022/10/11 00:19:28;;;;;;;1.47;0.80;;;15.00;99.90;;;;;;5032975;28;20514;-70
2022/10/11 00:21:55;;;;;;;1.60;0.80;;;14.90;99.90;;;;;;5036200;28;20460;-70
2022/10/11 00:24:22;;;;;;;4.30;0.90;;;14.90;99.90;;;;;;5033094;28;20954;-70
2022/10/11 00:26:49;;;;;;;2.50;0.97;;;14.90;99.90;;;;;;5034098;28;20823;-70
2022/10/11 00:29:17;;;;;;;1.50;0.80;;;14.90;99.90;;;;;;5034896;28;20468;-70
2022/10/11 00:31:44;;;;;;;2.50;0.80;;;14.80;99.90;;;;;;5034347;28;20896;-70
2022/10/11 00:34:12;;;;;;;1.43;1.07;;;14.80;99.90;;;;;;5035592;28;21017;-70
2022/10/11 00:36:39;;;;;;;2.27;0.90;;;14.90;99.90;;;;;;5033740;28;20546;-69
2022/10/11 00:39:06;;;;;;;1.40;0.80;;;14.80;99.90;;;;;;5035843;28;20506;-70
2022/10/11 00:41:33;;;;;;;1.70;0.77;;;14.80;99.90;;;;;;5033500;28;20459;-69
2022/10/11 00:44:11;;;;;;;3.20;0.90;;;14.70;99.90;;;;;;5037973;28;20818;-69
2022/10/11 00:46:42;;;;;;;1.50;0.80;;;14.80;99.90;;;;;;5035852;28;20735;-69
2022/10/11 00:49:17;;;;;;;4.50;0.90;;;14.70;99.90;;;;;;5039506;28;20448;-70
2022/10/11 00:51:49;;;;;;;5.17;0.80;;;14.70;99.90;;;;;;5037210;28;20514;-70
2022/10/11 00:54:20;;;;;;;2.03;0.80;;;14.80;99.90;;;;;;5039509;28;20483;-69
2022/10/11 00:56:52;;;;;;;1.30;0.80;;;14.70;99.90;;;;;;5037313;28;20482;-70
2022/10/11 00:59:22;;;;;;;1.40;0.80;;;14.70;99.90;;;;;;5039444;28;20571;-70
2022/10/11 01:01:51;;;;;;;2.37;0.80;;;14.60;99.90;;;;;;5037094;28;20464;-70
2022/10/11 01:04:18;;;;;;;1.00;0.80;;;14.60;99.90;;;;;;5039250;28;20561;-70
2022/10/11 01:06:45;;;;;;;1.93;1.00;;;14.60;99.90;;;;;;5037007;28;20521;-70
2022/10/11 01:09:13;;;;;;;1.77;0.97;;;14.60;99.90;;;;;;5039550;28;20448;-70
2022/10/11 01:11:42;;;;;;;1.60;0.80;;;14.60;99.90;;;;;;5036543;28;20464;-70
2022/10/11 01:14:44;;;;;;;4.47;0.80;;;14.50;99.90;;;;;;5039209;28;20558;-70
2022/10/11 01:17:26;;;;;;;1.67;0.70;;;14.50;99.90;;;;;;5000318;28;20527;-70
2022/10/11 01:20:21;;;;;;;2.20;0.90;;;14.50;99.90;;;;;;5039386;28;20447;-70
2022/10/11 01:23:14;;;;;;;4.70;1.23;;;14.40;99.90;;;;;;5003819;28;20492;-71
2022/10/11 01:25:55;;;;;;;1.17;0.83;;;14.40;99.90;;;;;;5020565;28;20452;-70
2022/10/11 01:28:38;;;;;;;1.80;0.90;;;14.40;99.90;;;;;;5038911;28;20742;-70
2022/10/11 01:31:16;;;;;;;2.80;0.93;;;14.30;99.90;;;;;;5037031;28;20460;-70
2022/10/11 01:33:50;;;;;;;1.60;0.90;;;14.30;99.90;;;;;;5038411;28;20887;-69
2022/10/11 01:36:28;;;;;;;1.40;0.97;;;14.30;99.90;;;;;;5037018;28;20460;-70
2022/10/11 01:38:59;;;;;;;3.47;0.87;;;14.20;99.90;;;;;;5038730;28;20460;-69
2022/10/11 01:41:30;;;;;;;1.20;0.80;;;14.20;99.90;;;;;;5037012;28;20464;-69
2022/10/11 01:44:00;;;;;;;1.80;0.90;;;14.20;99.90;;;;;;5038906;28;20441;-70
2022/10/11 01:46:30;;;;;;;1.63;0.80;;;14.10;99.90;;;;;;5036841;28;20514;-69
2022/10/11 01:48:59;;;;;;;2.33;0.80;;;14.10;99.90;;;;;;5039141;28;20888;-71
2022/10/11 01:51:31;;;;;;;3.83;0.90;;;14.00;99.90;;;;;;5038735;28;20437;-71
2022/10/11 01:54:34;;;;;;;4.50;0.77;;;14.10;99.90;;;;;;5038175;28;20494;-71
2022/10/11 01:57:24;;;;;;;2.63;0.77;;;14.10;99.90;;;;;;5009573;28;20743;-71
2022/10/11 01:59:59;;;;;;;1.40;0.80;;;14.00;99.90;;;;;;5038111;28;20432;-70
2022/10/11 02:02:43;;;;;;;1.43;0.80;;;13.90;99.90;;;;;;5036307;28;20466;-69
2022/10/11 02:05:20;;;;;;;1.70;0.80;;;13.90;99.90;;;;;;5038159;28;20884;-70
2022/10/11 02:07:52;;;;;;;1.53;1.00;;;14.00;99.90;;;;;;5035037;28;20444;-69
2022/10/11 02:10:28;;;;;;;1.07;0.70;;;14.00;99.90;;;;;;5037658;28;20444;-70
2022/10/11 02:13:01;;;;;;;1.10;0.70;;;14.00;99.90;;;;;;5035079;28;20581;-70
2022/10/11 02:15:33;;;;;;;1.10;0.80;;;14.00;99.90;;;;;;5037913;28;20751;-71
2022/10/11 02:18:06;;;;;;;2.47;0.90;;;14.00;99.90;;;;;;5038007;28;20455;-71
2022/10/11 02:20:37;;;;;;;2.60;0.90;;;13.90;99.90;;;;;;5037345;28;20448;-71
2022/10/11 02:23:09;;;;;;;2.20;0.80;;;13.90;99.90;;;;;;5036553;28;20510;-71
2022/10/11 02:25:37;;;;;;;2.10;0.80;;;13.90;99.90;;;;;;5033879;28;20502;-71
2022/10/11 02:28:07;;;;;;;2.00;0.90;;;13.90;99.90;;;;;;5036087;28;20479;-70
2022/10/11 02:30:35;;;;;;;1.30;0.77;;;14.00;99.90;;;;;;5037371;28;20488;-70
2022/10/11 02:33:08;;;;;;;2.50;0.90;;;14.00;99.90;;;;;;5037123;28;20518;-71
2022/10/11 02:35:41;;;;;;;1.73;1.17;;;14.10;99.90;;;;;;5032708;28;20484;-70
2022/10/11 02:38:16;;;;;;;2.20;0.80;;;14.10;99.90;;;;;;5037926;28;20483;-70
2022/10/11 02:40:48;;;;;;;1.40;0.70;;;14.20;99.90;;;;;;5035316;28;20941;-70
2022/10/11 02:43:22;;;;;;;2.27;0.80;;;14.20;99.90;;;;;;5037375;28;20454;-71
2022/10/11 02:45:54;;;;;;;3.50;1.00;;;14.30;99.90;;;;;;5034968;28;20448;-70
2022/10/11 02:48:26;;;;;;;6.60;1.50;;;14.40;99.90;;;;;;5037369;28;20761;-70
2022/10/11 02:50:54;;;;;;;1.80;0.97;;;14.40;99.90;;;;;;5036185;28;20517;-70
2022/10/11 02:53:22;;;;;;;1.90;1.00;;;14.40;99.90;;;;;;5037034;28;20452;-70
2022/10/11 02:55:51;;;;;;;3.27;0.80;;;14.30;99.90;;;;;;5034010;28;20561;-70
2022/10/11 02:58:18;;;;;;;1.63;1.37;;;14.30;99.90;;;;;;5037163;28;20448;-70
2022/10/11 03:00:45;;;;;;;2.93;0.80;;;14.40;99.90;;;;;;5035139;28;20448;-69
2022/10/11 03:03:12;;;;;;;2.80;0.90;;;14.50;99.90;;;;;;5037293;28;20760;-69
2022/10/11 03:05:42;;;;;;;3.53;0.80;;;14.50;99.90;;;;;;5033715;28;20876;-69
2022/10/11 03:08:10;;;;;;;1.87;1.00;;;14.40;99.90;;;;;;5037005;28;20484;-69
2022/10/11 03:10:38;;;;;;;1.20;0.83;;;14.40;99.90;;;;;;5032848;28;20449;-69
2022/10/11 03:13:05;;;;;;;2.07;0.90;;;14.40;99.90;;;;;;5035976;28;20990;-70
2022/10/11 03:15:32;;;;;;;2.60;1.03;;;14.50;99.90;;;;;;5036304;28;20483;-69
2022/10/11 03:18:00;;;;;;;2.90;1.00;;;14.50;99.90;;;;;;5036759;28;20452;-70
2022/10/11 03:20:27;;;;;;;3.50;1.00;;;14.50;99.90;;;;;;5036643;28;20452;-69
2022/10/11 03:22:56;;;;;;;4.03;1.23;;;14.60;99.90;;;;;;5034330;28;20460;-69
2022/10/11 03:25:22;;;;;;;2.53;1.30;;;14.70;99.90;;;;;;5037093;28;20449;-69
2022/10/11 03:27:49;;;;;;;5.50;1.30;;;14.70;99.90;;;;;;5033531;28;20459;-69
2022/10/11 03:30:17;;;;;;;4.37;1.20;;;14.70;99.90;;;;;;5036597;28;20452;-69
2022/10/11 03:32:44;;;;;;;2.27;1.33;;;14.70;99.90;;;;;;5033708;28;20460;-70
2022/10/11 03:35:11;;;;;;;4.73;1.50;;;14.70;99.90;;;;;;5035667;28;20574;-69
2022/10/11 03:37:38;;;;;;;2.07;1.23;;;14.70;99.90;;;;;;5033299;28;20452;-69
2022/10/11 03:40:08;;;;;;;6.60;2.73;;;14.70;99.90;;;;;;5036658;28;20514;-70
2022/10/11 03:42:35;;;;;;;2.50;1.30;;;14.70;99.90;;;;;;5034876;28;20809;-69
2022/10/11 03:45:03;;;;;;;7.23;1.30;;;14.60;99.90;;;;;;5036247;28;20445;-69
2022/10/11 03:47:30;;;;;;;3.17;1.40;;;14.70;99.90;;;;;;5034122;28;20460;-69
2022/10/11 03:49:57;;;;;;;4.73;1.60;;;14.70;99.90;;;;;;5036285;28;20453;-68
2022/10/11 03:52:24;;;;;;;3.80;1.67;;;14.70;99.90;;;;;;5034033;28;20479;-69
2022/10/11 03:54:52;;;;;;;3.40;1.50;;;14.60;99.90;;;;;;5036134;28;20542;-68
2022/10/11 03:57:20;;;;;;;4.67;1.60;;;14.50;99.90;;;;;;5034589;28;20752;-70
2022/10/11 03:59:48;;;;;;;5.03;2.07;;;14.60;99.90;;;;;;5036684;28;20448;-69
2022/10/11 04:02:15;;;;;;;5.30;2.80;;;14.60;99.90;;;;;;5034159;28;20456;-70
2022/10/11 04:04:41;;;;;;;7.77;1.97;;;14.70;99.90;;;;;;5035770;28;20471;-70
2022/10/11 04:07:09;;;;;;;3.73;2.77;;;14.70;99.90;;;;;;5034145;28;20523;-70
2022/10/11 04:09:36;;;;;;;6.33;2.90;;;14.70;99.90;;;;;;5036556;28;20803;-69
2022/10/11 04:12:03;;;;;;;3.60;2.50;;;14.70;99.90;;;;;;5034270;28;20460;-70
2022/10/11 04:14:32;;;;;;;5.20;3.47;;;14.70;99.90;;;;;;5035477;28;20567;-70
2022/10/11 04:16:59;;;;;;;11.83;4.10;;;14.80;99.90;;;;;;5033624;28;20962;-70
2022/10/11 04:19:26;;;;;;;5.93;2.67;;;14.90;99.90;;;;;;5039268;28;20456;-71
2022/10/11 04:21:53;;;;;;;7.87;3.80;;;14.90;99.90;;;;;;5038975;28;20456;-70
2022/10/11 04:24:20;;;;;;;5.70;3.30;;;15.00;99.90;;;;;;5038904;28;20452;-71
2022/10/11 04:26:47;;;;;;;5.37;2.90;;;15.00;99.90;;;;;;5035190;28;20460;-71
2022/10/11 04:29:14;;;;;;;6.57;2.83;;;14.90;99.90;;;;;;5038098;28;20452;-70
2022/10/11 04:31:42;;;;;;;5.93;3.10;;;15.00;99.90;;;;;;5035687;28;20817;-70
2022/10/11 04:34:09;;;;;;;5.50;3.07;;;14.90;99.90;;;;;;5038430;28;20452;-70
2022/10/11 04:36:37;;;;;;;8.87;3.80;;;14.80;99.90;;;;;;5034963;28;20483;-70
2022/10/11 04:39:05;;;;;;;11.80;4.33;;;14.80;99.90;;;;;;5038945;28;20452;-70
2022/10/11 04:41:33;;;;;;;7.93;3.00;;;14.80;99.90;;;;;;5036056;28;20517;-70
2022/10/11 04:43:59;;;;;;;7.40;3.07;;;14.80;99.90;;;;;;5039430;28;20452;-70
2022/10/11 04:46:27;;;;;;;7.60;4.70;;;14.90;99.90;;;;;;5036910;28;20460;-70
2022/10/11 04:48:55;;;;;;;6.97;4.00;;;14.90;99.90;;;;;;5038844;28;20498;-70
2022/10/11 04:51:22;;;;;;;6.10;3.13;;;14.90;99.90;;;;;;5037677;28;20558;-70
2022/10/11 04:53:49;;;;;;;7.90;3.27;;;14.80;99.90;;;;;;5039065;28;20811;-70
2022/10/11 04:56:17;;;;;;;10.03;4.23;;;14.80;99.90;;;;;;5036797;28;20488;-71
2022/10/11 04:58:46;;;;;;;8.13;3.40;;;14.70;99.90;;;;;;5039494;28;20734;-71
2022/10/11 05:01:14;;;;;;;8.40;3.27;;;14.70;99.90;;;;;;5036096;28;20467;-71
2022/10/11 05:03:41;;;;;;;8.33;4.40;;;14.70;99.90;;;;;;5039060;28;20506;-71
2022/10/11 05:06:09;;;;;;;8.87;3.10;;;14.70;99.90;;;;;;5036149;28;20460;-70
2022/10/11 05:08:36;;;;;;;9.93;4.93;;;14.80;99.90;;;;;;5039294;28;20454;-71
2022/10/11 05:11:05;;;;;;;9.17;4.03;;;14.70;99.90;;;;;;5035359;28;20510;-70
2022/10/11 05:13:33;;;;;;;6.07;4.87;;;14.80;99.90;;;;;;5038348;28;20475;-70
2022/10/11 05:16:00;;;;;;;8.37;4.20;;;14.90;99.90;;;;;;5033605;28;20488;-70
2022/10/11 05:18:28;;;;;;;6.53;3.37;;;15.00;99.90;;;;;;5036636;28;20647;-71
2022/10/11 05:20:59;;;;;;;8.83;6.00;;;15.00;99.90;;;;;;5033359;28;20468;-70
2022/10/11 05:23:28;;;;;;;11.10;5.10;;;14.90;99.90;;;;;;5037807;28;20440;-71
2022/10/11 05:25:55;;;;;;;7.40;4.50;;;14.70;99.90;;;;;;5035379;28;20741;-71
2022/10/11 05:28:22;;;;;;;7.10;4.13;;;14.60;99.90;;;;;;5037441;28;20436;-70
2022/10/11 05:30:49;;;;;;;9.00;3.80;;;14.70;99.90;;;;;;5034603;28;20455;-71
2022/10/11 05:33:16;;;;;;;10.20;4.17;;;14.80;99.90;;;;;;5037212;28;20436;-70
2022/10/11 05:35:43;;;;;;;7.77;3.20;;;14.90;99.90;;;;;;5035796;28;20484;-71
2022/10/11 05:38:10;;;;;;;7.70;4.47;;;15.00;99.90;;;;;;5036846;28;20507;-71
2022/10/11 05:40:39;;;;;;;7.53;3.83;;;15.00;99.90;;;;;;5033653;28;20514;-71
2022/10/11 05:43:06;;;;;;;8.70;4.07;;;15.00;99.90;;;;;;5036265;28;20433;-70
2022/10/11 05:45:35;;;;;;;6.10;3.00;;;15.10;99.90;;;;;;5038215;28;20474;-70
2022/10/11 05:48:02;;;;;;;7.83;4.60;;;15.20;99.90;;;;;;5036757;28;20889;-70
2022/10/11 05:50:30;;;;;;;8.50;4.20;;;15.30;99.90;;;;;;5036591;28;20470;-70
2022/10/11 05:52:56;;;;;;;14.17;3.23;;;15.30;99.90;;;;;;5033494;28;20461;-70
2022/10/11 05:55:24;;;;;;;9.33;3.63;;;15.40;99.90;;;;;;5035862;28;20479;-70
2022/10/11 05:57:54;;;;;;;6.13;3.60;;;15.40;99.90;;;;;;5035013;28;20517;-70
2022/10/11 06:00:22;;;;;;;10.20;3.23;;;15.60;99.90;;;;;;5036868;28;20464;-69
2022/10/11 06:02:49;;;;;;;9.37;4.53;;;15.40;99.90;;;;;;5034144;28;20456;-70
2022/10/11 06:05:16;;;;;;;4.97;2.47;;;15.40;99.90;;;;;;5037674;28;20949;-71
2022/10/11 06:07:43;;;;;;;4.20;2.43;;;15.40;99.90;;;;;;5034583;28;20452;-70
2022/10/11 06:10:11;;;;;;;6.50;3.40;;;15.30;99.90;;;;;;5037310;28;20453;-70
2022/10/11 06:12:38;;;;;;;8.50;4.57;;;15.40;99.90;;;;;;5033454;28;20488;-70
2022/10/11 06:15:09;;;;;;;8.30;4.50;;;15.20;99.90;;;;;;5036114;28;20479;-70
2022/10/11 06:17:36;;;;;;;7.10;3.70;;;15.00;99.90;;;;;;5031977;28;20793;-70
2022/10/11 06:20:04;;;;;;;5.13;2.83;;;15.00;99.90;;;;;;5036785;28;21242;-70
2022/10/11 06:22:31;;;;;;;8.73;3.83;;;14.90;99.90;;;;;;5033405;28;20815;-71
2022/10/11 06:24:58;;;;;;;5.93;3.40;;;15.10;99.90;;;;;;5036002;28;20553;-71
2022/10/11 06:27:26;;;;;;;7.80;4.27;;;15.00;99.90;;;;;;5032941;28;20467;-71
2022/10/11 06:29:52;;;;;;;5.90;4.57;;;15.10;99.90;;;;;;5036181;28;20502;-70
2022/10/11 06:32:21;;;;;;;5.40;2.67;;;15.00;99.90;;;;;;5032890;28;20483;-70
2022/10/11 06:34:48;;;;;;;11.70;4.37;;;15.00;99.90;;;;;;5036808;28;20467;-70
2022/10/11 06:37:15;;;;;;;4.87;3.30;;;15.10;99.90;;;;;;5036470;28;20480;-70
2022/10/11 06:39:42;;;;;;;9.17;2.70;;;15.20;99.90;;;;;;5035833;28;20506;-69
2022/10/11 06:42:10;;;;;;;7.47;3.87;;;15.30;99.90;;;;;;5032605;28;20467;-70
2022/10/11 06:44:37;;;;;;;13.40;4.23;;;15.40;99.90;;;;;;5036428;28;20494;-69
2022/10/11 06:47:05;;;;;;;8.70;4.40;;;15.40;99.90;;;;;;5032875;28;20973;-72
2022/10/11 06:49:33;;;;;;;4.70;2.13;;;15.40;99.90;;;;;;5035800;28;20454;-71
2022/10/11 06:52:00;;;;;;;5.33;3.60;;;15.40;99.90;;;;;;5032374;28;20456;-71
2022/10/11 06:54:27;;;;;;;4.37;2.87;;;15.50;99.90;;;;;;5036683;28;20938;-69
2022/10/11 06:56:54;;;;;;;8.70;3.83;;;15.50;99.90;;;;;;5032994;28;20483;-69
2022/10/11 06:59:21;;;;;;;9.63;3.90;;;15.60;99.90;;;;;;5036563;28;20456;-69
2022/10/11 07:01:48;;;;;;;4.53;3.60;;;15.50;99.90;;;;;;5032653;28;20510;-69
2022/10/11 07:04:15;;;;;;;9.17;3.10;;;15.40;99.90;;;;;;5033650;28;20896;-69
2022/10/11 07:06:43;;;;;;;6.90;3.33;;;15.40;99.90;;;;;;5031659;28;20452;-69
2022/10/11 07:09:10;;;;;;;6.70;3.23;;;15.40;99.90;;;;;;5034953;28;20480;-69
2022/10/11 07:11:37;;;;;;;8.40;4.10;;;15.40;99.90;;;;;;5030505;28;20550;-69
2022/10/11 07:14:06;;;;;;;6.07;3.47;;;15.50;99.90;;;;;;5034721;28;20476;-70
2022/10/11 07:16:34;;;;;;;8.20;2.20;;;15.50;99.90;;;;;;5032513;28;20480;-69
2022/10/11 07:19:04;;;;;;;7.37;3.60;;;15.50;99.90;;;;;;5035679;28;20456;-70
2022/10/11 07:21:33;;;;;;;6.20;3.30;;;15.60;99.90;;;;;;5031301;28;20912;-69
2022/10/11 07:24:01;;;;;;;4.88;3.65;;;15.60;99.90;;;;;;5032443;28;20786;-69
2022/10/11 07:26:29;;;;;;;6.63;3.97;;;15.60;99.90;;;;;;5030307;28;20197;-69
2022/10/11 07:28:56;;;;;;;5.70;3.07;;;15.40;99.90;;;;;;5033423;28;20448;-70
2022/10/11 07:31:25;;;;;;;8.57;3.03;;;15.30;99.90;;;;;;5031269;28;20456;-69
2022/10/11 07:33:52;;;;;;;4.03;2.60;;;15.50;99.90;;;;;;5034262;28;20445;-70
2022/10/11 07:36:19;;;;;;;8.20;4.43;;;15.60;99.90;;;;;;5031300;28;20951;-70
2022/10/11 07:38:48;;;;;;;8.90;3.90;;;15.40;99.90;;;;;;5034870;28;20451;-69
2022/10/11 07:41:17;;;;;;;5.20;2.63;;;15.30;99.90;;;;;;5036471;28;20528;-70
2022/10/11 07:43:46;;;;;;;10.18;5.38;;;15.50;99.90;;;;;;5032394;28;20442;-69
2022/10/11 07:46:14;;;;;;;10.10;3.10;;;15.70;99.90;;;;;;5032845;28;20193;-69
2022/10/11 07:48:41;;;;;;;7.57;3.30;;;15.90;99.90;;;;;;5032964;28;20455;-70
2022/10/11 07:51:10;;;;;;;3.37;1.90;;;15.90;99.90;;;;;;5033276;28;20826;-69
2022/10/11 07:53:41;;;;;;;3.23;2.23;;;15.90;99.90;;;;;;5033652;28;20475;-70
2022/10/11 07:56:11;;;;;;;10.13;3.00;;;16.00;99.90;;;;;;5034216;28;20582;-69
2022/10/11 07:58:40;;;;;;;6.13;2.00;;;16.20;99.90;;;;;;5032468;28;20468;-70
2022/10/11 08:01:07;;;;;;;5.33;3.60;;;16.20;99.90;;;;;;5034391;28;20518;-70
2022/10/11 08:03:35;;;;;;;4.20;2.87;;;16.20;99.90;;;;;;5031547;28;20460;-69
2022/10/11 08:06:03;;;;;;;6.47;3.13;;;16.20;99.90;;;;;;5032741;28;20565;-70
2022/10/11 08:08:30;;;;;;;7.70;3.20;;;16.20;99.90;;;;;;5032906;28;20506;-70
2022/10/11 08:10:57;;;;;;;7.10;3.63;;;16.20;99.90;;;;;;5035250;28;20523;-70
2022/10/11 08:13:25;;;;;;;6.63;3.47;;;16.10;99.90;;;;;;5033109;28;20492;-70
2022/10/11 08:15:53;;;;;;;11.10;3.83;;;15.90;99.90;;;;;;5035420;28;20806;-70
2022/10/11 08:18:21;;;;;;;5.27;3.63;;;15.90;99.90;;;;;;5031800;28;20460;-70
2022/10/11 08:20:48;;;;;;;4.30;2.57;;;15.90;99.90;;;;;;5033514;28;20456;-70
2022/10/11 08:23:16;;;;;;;7.73;3.33;;;15.80;99.90;;;;;;5028927;28;20483;-71
2022/10/11 08:25:45;;;;;;;8.97;4.57;;;15.80;99.90;;;;;;5031906;28;20879;-70
2022/10/11 08:28:15;;;;;;;7.73;4.60;;;15.70;99.90;;;;;;5031177;28;20456;-71
2022/10/11 08:30:49;;;;;;;7.13;3.73;;;15.70;99.90;;;;;;5033184;28;20518;-70
2022/10/11 08:33:18;;;;;;;6.00;3.80;;;15.60;99.90;;;;;;5019432;28;20459;-71
2022/10/11 08:35:48;;;;;;;9.40;4.00;;;15.60;99.90;;;;;;5034218;28;20448;-71
2022/10/11 08:38:15;;;;;;;6.77;5.27;;;15.50;99.90;;;;;;5030448;28;20456;-70
2022/10/11 08:40:46;;;;;;;4.93;2.90;;;15.40;99.90;;;;;;5034605;28;20456;-70
2022/10/11 08:43:18;;;;;;;7.17;3.50;;;15.40;99.90;;;;;;5033255;28;20460;-70
2022/10/11 08:45:49;;;;;;;7.90;5.40;;;15.40;99.90;;;;;;5032414;28;20456;-70
2022/10/11 08:48:20;;;;;;;5.90;4.00;;;15.70;99.90;;;;;;5034441;28;20506;-70
2022/10/11 08:50:51;;;;;;;7.57;4.10;;;15.90;99.90;;;;;;5029403;28;20452;-70
2022/10/11 08:53:26;;;;;;;14.10;4.20;;;15.80;99.90;;;;;;5016757;28;20522;-70
2022/10/11 08:55:54;;;;;;;6.40;4.33;;;15.80;99.90;;;;;;5029656;28;20463;-71
2022/10/11 08:58:24;;;;;;;7.57;4.30;;;15.70;99.90;;;;;;5033272;28;20507;-70
2022/10/11 09:00:54;;;;;;;7.33;4.20;;;15.70;99.90;;;;;;5030717;28;20452;-70
2022/10/11 09:03:35;;;;;;;10.10;4.40;;;15.60;99.90;;;;;;5030614;28;20737;-70
2022/10/11 09:06:12;;;;;;;8.13;3.87;;;15.40;99.90;;;;;;5032673;28;20455;-70
2022/10/11 09:08:52;;;;;;;7.87;4.87;;;15.40;99.90;;;;;;5036462;28;20504;-70
2022/10/11 09:11:30;;;;;;;6.37;4.00;;;15.40;99.90;;;;;;5021779;28;20517;-70
2022/10/11 09:14:20;;;;;;;6.07;3.90;;;15.30;99.90;;;;;;5027211;28;20476;-70
2022/10/11 09:16:57;;;;;;;8.23;4.47;;;15.40;99.90;;;;;;4983302;28;20493;-70
2022/10/11 09:19:55;;;;;;;8.27;4.07;;;15.50;99.90;;;;;;5017707;28;20444;-70
2022/10/11 09:22:30;;;;;;;8.50;4.10;;;15.60;99.90;;;;;;5031730;28;20518;-70
2022/10/11 09:25:13;;;;;;;9.27;3.40;;;15.60;99.90;;;;;;5034535;28;20521;-69
2022/10/11 09:27:45;;;;;;;8.57;5.17;;;15.70;99.90;;;;;;5037504;28;20448;-69
2022/10/11 09:30:15;;;;;;;8.30;5.13;;;15.60;99.90;;;;;;5033466;28;20460;-70
2022/10/11 09:32:45;;;;;;;5.23;4.00;;;15.50;99.90;;;;;;5037315;28;20452;-70
2022/10/11 09:35:15;;;;;;;12.40;5.23;;;15.50;99.90;;;;;;5017227;28;20453;-70
2022/10/11 09:37:55;;;;;;;5.37;4.20;;;15.50;99.90;;;;;;5036421;28;20484;-69
2022/10/11 09:40:43;;;;;;;7.07;3.70;;;15.70;99.90;;;;;;5036125;28;20892;-69
2022/10/11 09:43:10;;;;;;;7.03;4.10;;;15.90;99.90;;;;;;5035456;28;20457;-70
2022/10/11 09:45:37;;;;;;;5.70;3.80;;;16.10;99.90;;;;;;5033210;28;20483;-70
2022/10/11 09:48:07;;;;;;;7.73;5.00;;;16.30;99.90;;;;;;5026511;28;20449;-70
2022/10/11 09:50:35;;;;;;;7.80;5.00;;;16.10;99.90;;;;;;5033476;28;20463;-69
2022/10/11 09:53:06;;;;;;;7.40;4.37;;;16.00;99.90;;;;;;5035657;28;20456;-70
2022/10/11 09:55:37;;;;;;;9.10;4.60;;;16.00;99.90;;;;;;5032547;28;20514;-70
2022/10/11 09:58:06;;;;;;;8.53;4.40;;;16.10;99.90;;;;;;5034396;28;20844;-70
2022/10/11 10:00:33;;;;;;;9.23;4.83;;;16.30;99.90;;;;;;5032133;28;20482;-70
2022/10/11 10:03:02;;;;;;;5.87;4.13;;;16.30;99.90;;;;;;5035499;28;20444;-71
2022/10/11 10:05:31;;;;;;;9.40;4.50;;;16.30;99.90;;;;;;5032775;28;20448;-69
2022/10/11 10:08:25;;;;;;;11.00;4.50;;;16.30;99.90;;;;;;5034238;28;20967;-69
2022/10/11 10:11:01;;;;;;;5.90;3.53;;;16.30;99.90;;;;;;5035662;28;20522;-70
2022/10/11 10:13:36;;;;;;;9.40;5.20;;;16.30;99.90;;;;;;5036218;28;20475;-70
2022/10/11 10:16:04;;;;;;;8.37;4.10;;;16.30;99.90;;;;;;5032158;28;20447;-70
2022/10/11 10:18:34;;;;;;;8.60;4.17;;;16.30;99.90;;;;;;5034179;28;20476;-70
2022/10/11 10:21:08;;;;;;;5.97;4.20;;;16.40;99.90;;;;;;5036075;28;20460;-71
2022/10/11 10:23:37;;;;;;;8.57;4.40;;;16.40;99.90;;;;;;5035973;28;20456;-71
2022/10/11 10:26:13;;;;;;;12.10;4.40;;;16.40;99.90;;;;;;5032583;28;20950;-70
2022/10/11 10:28:56;;;;;;;5.77;4.83;;;16.10;99.90;;;;;;5037614;28;20444;-71
2022/10/11 10:31:24;;;;;;;6.83;4.27;;;16.20;99.90;;;;;;5032936;28;20460;-71
2022/10/11 10:33:54;;;;;;;6.00;2.97;;;16.40;99.90;;;;;;5035232;28;20975;-70
2022/10/11 10:36:26;;;;;;;9.40;5.50;;;16.50;99.90;;;;;;5032757;28;20452;-71
2022/10/11 10:39:02;;;;;;;4.90;3.47;;;16.50;99.90;;;;;;5036321;28;20452;-72
2022/10/11 10:41:29;;;;;;;9.43;6.20;;;16.60;99.90;;;;;;5028812;28;20463;-71
2022/10/11 10:43:59;;;;;;;7.23;4.40;;;16.60;99.90;;;;;;5029810;28;20440;-69
2022/10/11 10:46:45;;;;;;;6.57;3.37;;;16.60;99.90;;;;;;5031309;28;20456;-72
2022/10/11 10:49:19;;;;;;;6.40;4.13;;;16.70;99.90;;;;;;5034109;28;20495;-71
2022/10/11 10:51:56;;;;;;;7.73;3.73;;;16.50;99.90;;;;;;5036084;28;20758;-71
2022/10/11 10:54:40;;;;;;;7.97;3.40;;;16.50;99.90;;;;;;5036183;28;20483;-71
2022/10/11 10:57:17;;;;;;;4.40;2.27;;;16.50;99.90;;;;;;5032206;28;20491;-71
2022/10/11 11:00:05;;;;;;;8.10;4.53;;;16.60;99.90;;;;;;5027102;28;20754;-70
2022/10/11 11:02:41;;;;;;;8.90;4.77;;;16.60;99.90;;;;;;5032318;28;20451;-73
2022/10/11 11:05:23;;;;;;;6.70;3.20;;;16.60;99.90;;;;;;5031606;28;20510;-72
2022/10/11 11:07:54;;;;;;;7.93;3.50;;;16.50;99.90;;;;;;5032759;28;21172;-72
2022/10/11 11:10:30;;;;;;;4.50;3.10;;;16.30;99.90;;;;;;5034029;28;20456;-71
2022/10/11 11:13:07;;;;;;;6.63;3.70;;;16.50;99.90;;;;;;5029379;28;20542;-72
2022/10/11 11:15:40;;;;;;;4.03;3.63;;;16.60;99.90;;;;;;5022396;28;20491;-71
2022/10/11 11:18:24;;;;;;;5.20;3.73;;;16.60;99.90;;;;;;5026573;28;21163;-71
2022/10/11 11:21:02;;;;;;;4.60;3.40;;;16.50;99.90;;;;;;5026435;28;20765;-72
2022/10/11 11:23:38;;;;;;;8.97;6.50;;;16.50;99.90;;;;;;5035437;28;20440;-72
2022/10/11 11:26:15;;;;;;;6.00;3.07;;;16.50;99.90;;;;;;5030558;28;20582;-71
2022/10/11 11:28:57;;;;;;;4.97;3.30;;;16.50;99.90;;;;;;5034153;28;20440;-71
2022/10/11 11:31:45;;;;;;;6.37;3.77;;;16.20;99.90;;;;;;5030739;28;20526;-72
2022/10/11 11:34:20;;;;;;;4.50;2.90;;;16.30;99.90;;;;;;5034228;28;20499;-71
2022/10/11 11:36:51;;;;;;;7.73;3.00;;;16.30;99.90;;;;;;5035408;28;20799;-71
2022/10/11 11:39:23;;;;;;;3.10;2.40;;;16.20;99.90;;;;;;5034020;28;20447;-71
2022/10/11 11:41:56;;;;;;;8.13;4.03;;;16.30;99.90;;;;;;5032385;28;20487;-71
2022/10/11 11:44:30;;;;;;;6.17;2.43;;;16.30;99.90;;;;;;5035107;28;20479;-72
2022/10/11 11:47:01;;;;;;;4.60;2.77;;;16.20;99.90;;;;;;5033735;28;20979;-72
2022/10/11 11:49:34;;;;;;;6.23;3.07;;;16.30;99.90;;;;;;5035395;28;20691;-71
2022/10/11 11:52:02;;;;;;;5.60;3.07;;;16.40;99.90;;;;;;5035823;28;20448;-72
2022/10/11 11:54:40;;;;;;;3.37;2.13;;;16.20;99.90;;;;;;5034375;28;20777;-72
2022/10/11 11:57:17;;;;;;;5.40;3.20;;;16.20;99.90;;;;;;5033531;28;20502;-72
2022/10/11 11:59:49;;;;;;;9.30;2.57;;;16.20;99.90;;;;;;5030228;28;20449;-71
2022/10/11 12:02:31;;;;;;;6.53;3.37;;;16.10;99.90;;;;;;5035273;28;20763;-71
2022/10/11 12:04:59;;;;;;;4.50;3.00;;;16.20;99.90;;;;;;5031440;28;20460;-71
2022/10/11 12:07:29;;;;;;;5.57;3.70;;;16.30;99.90;;;;;;5033761;28;20924;-72
2022/10/11 12:10:17;;;;;;;5.63;3.00;;;16.20;99.90;;;;;;5031702;28;20530;-72
2022/10/11 12:12:46;;;;;;;5.03;2.27;;;16.10;99.90;;;;;;5033296;28;20484;-72
2022/10/11 12:15:21;;;;;;;10.83;3.50;;;16.10;99.90;;;;;;5032415;28;20918;-71
2022/10/11 12:18:15;;;;;;;4.47;2.47;;;16.30;99.90;;;;;;5035004;28;20546;-72
2022/10/11 12:20:43;;;;;;;4.87;3.47;;;16.30;99.90;;;;;;5032063;28;20896;-69
2022/10/11 12:23:47;;;;;;;3.97;1.70;;;16.40;99.90;;;;;;5034909;28;20452;-70
2022/10/11 12:26:35;;;;;;;5.20;2.13;;;16.30;99.90;;;;;;5031602;28;20459;-70
2022/10/11 12:29:23;;;;;;;4.00;2.40;;;16.20;99.90;;;;;;4983902;28;20444;-71
2022/10/11 12:32:10;;;;;;;7.27;3.87;;;16.40;99.90;;;;;;5031306;28;20456;-71
2022/10/11 12:34:40;;;;;;;4.70;2.30;;;16.30;99.90;;;;;;5031341;28;20527;-72
2022/10/11 12:37:40;;;;;;;8.50;3.93;;;16.20;99.90;;;;;;5033449;28;20940;-71
2022/10/11 12:40:34;;;;;;;6.60;2.87;;;16.00;99.90;;;;;;5026593;28;20455;-71
2022/10/11 12:43:22;;;;;;;4.00;3.10;;;15.80;99.90;;;;;;5036862;28;20466;-71
2022/10/11 12:45:51;;;;;;;6.53;3.07;;;15.70;99.90;;;;;;5041103;28;20491;-71
2022/10/11 12:48:34;;;;;;;4.13;2.73;;;15.70;99.90;;;;;;5037159;28;20440;-71
2022/10/11 12:51:16;;;;;;;5.80;2.67;;;15.60;99.90;;;;;;5036654;28;20466;-73
2022/10/11 12:54:08;;;;;;;3.27;1.97;;;15.70;99.90;;;;;;5039349;28;20735;-69
2022/10/11 12:56:47;;;;;;;5.00;2.30;;;16.00;99.90;;;;;;5036298;28;20837;-69
2022/10/11 12:59:18;;;;;;;4.77;3.60;;;16.00;99.90;;;;;;5037961;28;20487;-69
2022/10/11 13:01:53;;;;;;;4.83;3.20;;;16.20;99.90;;;;;;5035943;28;20514;-70
2022/10/11 13:04:25;;;;;;;6.07;3.20;;;16.10;99.90;;;;;;5037789;28;20505;-70
2022/10/11 13:06:55;;;;;;;4.63;2.50;;;16.10;99.90;;;;;;5033543;28;20452;-70
2022/10/11 13:09:28;;;;;;;4.70;2.17;;;16.10;99.90;;;;;;5034501;28;20451;-69